createdAt,value
2017-10-01T00:00:57.908Z,1033.03
2017-10-01T00:01:57.907Z,1033.05
2017-10-01T00:02:57.891Z,1033.05
2017-10-01T00:03:57.887Z,1033.04
2017-10-01T00:04:57.877Z,1032.99
2017-10-01T00:05:57.868Z,1033.02
2017-10-01T00:06:57.862Z,1032.96
2017-10-01T00:07:57.854Z,1032.98
2017-10-01T00:08:57.846Z,1032.95
2017-10-01T00:09:57.837Z,1032.98
2017-10-01T00:10:57.830Z,1032.98
2017-10-01T00:11:57.824Z,1032.97
2017-10-01T00:12:57.817Z,1032.99
2017-10-01T00:13:57.808Z,1032.99
2017-10-01T00:14:57.799Z,1033.01
2017-10-01T00:15:57.792Z,1033.01
2017-10-01T00:16:57.784Z,1033.02
2017-10-01T00:17:57.781Z,1033.01
2017-10-01T00:18:57.770Z,1033.01
2017-10-01T00:19:57.763Z,1032.99
2017-10-01T00:20:57.758Z,1032.99
2017-10-01T00:21:57.747Z,1033.02
2017-10-01T00:22:57.739Z,1033.02
2017-10-01T00:23:57.731Z,1032.97
2017-10-01T00:24:57.723Z,1032.97
2017-10-01T00:25:57.717Z,1032.98
2017-10-01T00:26:57.713Z,1032.98
2017-10-01T00:27:57.725Z,1032.97
2017-10-01T00:28:57.694Z,1032.86
2017-10-01T00:29:57.686Z,1032.86
2017-10-01T00:30:57.680Z,1032.81
2017-10-01T00:31:57.672Z,1032.79
2017-10-01T00:32:57.662Z,1032.78
2017-10-01T00:33:57.654Z,1032.75
2017-10-01T00:34:57.647Z,1032.73
2017-10-01T00:35:57.640Z,1032.73
2017-10-01T00:36:57.632Z,1032.72
2017-10-01T00:37:57.625Z,1032.73
2017-10-01T00:38:57.619Z,1032.73
2017-10-01T00:39:57.611Z,1032.76
2017-10-01T00:40:57.604Z,1032.72
2017-10-01T00:41:57.596Z,1032.73
2017-10-01T00:42:57.587Z,1032.73
2017-10-01T00:43:57.580Z,1032.73
2017-10-01T00:44:57.572Z,1032.71
2017-10-01T00:45:57.564Z,1032.68
2017-10-01T00:46:57.558Z,1032.69
2017-10-01T00:47:57.551Z,1032.7
2017-10-01T00:48:57.543Z,1032.7
2017-10-01T00:49:57.535Z,1032.72
2017-10-01T00:50:57.526Z,1032.7
2017-10-01T00:51:57.520Z,1032.71
2017-10-01T00:52:57.512Z,1032.73
2017-10-01T00:53:57.503Z,1032.73
2017-10-01T00:54:57.497Z,1032.73
2017-10-01T00:55:57.490Z,1032.71
2017-10-01T00:56:57.483Z,1032.69
2017-10-01T00:57:57.474Z,1032.69
2017-10-01T00:58:57.466Z,1032.66
2017-10-01T00:59:57.459Z,1032.72
2017-10-01T01:00:57.474Z,1032.71
2017-10-01T01:01:57.445Z,1032.73
2017-10-01T01:02:57.436Z,1032.76
2017-10-01T01:03:57.432Z,1032.74
2017-10-01T01:04:57.421Z,1032.73
2017-10-01T01:05:57.414Z,1032.71
2017-10-01T01:06:57.408Z,1032.75
2017-10-01T01:07:57.400Z,1032.75
2017-10-01T01:08:57.393Z,1032.68
2017-10-01T01:09:57.386Z,1032.68
2017-10-01T01:10:57.377Z,1032.68
2017-10-01T01:11:57.368Z,1032.66
2017-10-01T01:12:57.362Z,1032.72
2017-10-01T01:13:57.358Z,1032.66
2017-10-01T01:14:57.349Z,1032.68
2017-10-01T01:15:57.340Z,1032.74
2017-10-01T01:16:57.333Z,1032.7
2017-10-01T01:17:57.326Z,1032.72
2017-10-01T01:18:57.316Z,1032.69
2017-10-01T01:19:57.309Z,1032.77
2017-10-01T01:20:57.302Z,1032.75
2017-10-01T01:21:57.595Z,1032.79
2017-10-01T01:22:57.288Z,1032.77
2017-10-01T01:23:57.281Z,1032.74
2017-10-01T01:24:57.273Z,1032.77
2017-10-01T01:25:57.265Z,1032.75
2017-10-01T01:26:57.257Z,1032.72
2017-10-01T01:27:57.251Z,1032.75
2017-10-01T01:28:57.244Z,1032.77
2017-10-01T01:29:57.236Z,1032.75
2017-10-01T01:30:57.227Z,1032.74
2017-10-01T01:31:57.220Z,1032.74
2017-10-01T01:32:57.214Z,1032.78
2017-10-01T01:33:57.210Z,1032.81
2017-10-01T01:34:57.199Z,1032.77
2017-10-01T01:35:57.192Z,1032.75
2017-10-01T01:36:57.184Z,1032.76
2017-10-01T01:37:57.176Z,1032.79
2017-10-01T01:38:57.169Z,1032.78
2017-10-01T01:39:57.160Z,1032.83
2017-10-01T01:40:57.152Z,1032.84
2017-10-01T01:41:57.145Z,1032.81
2017-10-01T01:42:57.139Z,1032.86
2017-10-01T01:43:57.131Z,1032.88
2017-10-01T01:44:57.123Z,1032.89
2017-10-01T01:45:57.116Z,1032.94
2017-10-01T01:46:57.107Z,1032.9
2017-10-01T01:47:57.100Z,1032.95
2017-10-01T01:48:57.091Z,1032.92
2017-10-01T01:49:57.084Z,1032.91
2017-10-01T01:50:57.078Z,1032.94
2017-10-01T01:51:57.069Z,1032.94
2017-10-01T01:52:57.362Z,1032.96
2017-10-01T01:53:57.055Z,1032.93
2017-10-01T01:54:57.049Z,1032.98
2017-10-01T01:55:57.040Z,1033.02
2017-10-01T01:56:57.033Z,1032.99
2017-10-01T01:57:57.024Z,1033.03
2017-10-01T01:58:57.017Z,1033.01
2017-10-01T01:59:57.008Z,1033.06
2017-10-01T02:00:57.001Z,1033.06
2017-10-01T02:01:56.994Z,1033.1
2017-10-01T02:02:56.986Z,1033.08
2017-10-01T02:03:56.980Z,1033.05
2017-10-01T02:04:56.972Z,1033.08
2017-10-01T02:05:56.965Z,1033.07
2017-10-01T02:06:56.955Z,1033.11
2017-10-01T02:07:56.947Z,1033.11
2017-10-01T02:08:56.941Z,1033.12
2017-10-01T02:09:56.934Z,1033.13
2017-10-01T02:10:56.927Z,1033.17
2017-10-01T02:11:56.920Z,1033.11
2017-10-01T02:12:56.912Z,1033.16
2017-10-01T02:13:56.904Z,1033.12
2017-10-01T02:14:56.896Z,1033.18
2017-10-01T02:15:56.888Z,1033.18
2017-10-01T02:16:56.882Z,1033.18
2017-10-01T02:17:56.874Z,1033.18
2017-10-01T02:18:56.865Z,1033.17
2017-10-01T02:19:56.857Z,1033.2
2017-10-01T02:20:56.850Z,1033.2
2017-10-01T02:21:56.842Z,1033.2
2017-10-01T02:22:56.836Z,1033.23
2017-10-01T02:23:56.834Z,1033.18
2017-10-01T02:24:56.820Z,1033.18
2017-10-01T02:25:56.811Z,1033.18
2017-10-01T02:26:56.804Z,1033.18
2017-10-01T02:27:56.797Z,1033.17
2017-10-01T02:28:56.788Z,1033.19
2017-10-01T02:29:56.780Z,1033.22
2017-10-01T02:30:56.774Z,1033.21
2017-10-01T02:31:56.765Z,1033.22
2017-10-01T02:32:56.758Z,1033.23
2017-10-01T02:33:56.751Z,1033.24
2017-10-01T02:34:56.742Z,1033.25
2017-10-01T02:35:56.734Z,1033.23
2017-10-01T02:36:56.726Z,1033.29
2017-10-01T02:37:56.719Z,1033.26
2017-10-01T02:38:56.713Z,1033.32
2017-10-01T02:39:56.704Z,1033.29
2017-10-01T02:40:56.698Z,1033.31
2017-10-01T02:41:56.690Z,1033.31
2017-10-01T02:42:56.681Z,1033.34
2017-10-01T02:43:56.673Z,1033.38
2017-10-01T02:44:56.667Z,1033.34
2017-10-01T02:45:56.659Z,1033.38
2017-10-01T02:46:56.650Z,1033.38
2017-10-01T02:47:56.642Z,1033.37
2017-10-01T02:48:56.636Z,1033.39
2017-10-01T02:49:56.627Z,1033.37
2017-10-01T02:50:56.620Z,1033.35
2017-10-01T02:51:56.614Z,1033.35
2017-10-01T02:52:56.605Z,1033.35
2017-10-01T02:53:56.597Z,1033.36
2017-10-01T02:54:56.588Z,1033.36
2017-10-01T02:55:56.582Z,1033.37
2017-10-01T02:56:56.573Z,1033.37
2017-10-01T02:57:56.565Z,1033.38
2017-10-01T02:58:56.559Z,1033.43
2017-10-01T02:59:56.552Z,1033.43
2017-10-01T03:00:56.544Z,1033.42
2017-10-01T03:01:56.535Z,1033.42
2017-10-01T03:02:56.527Z,1033.42
2017-10-01T03:03:56.521Z,1033.39
2017-10-01T03:04:56.511Z,1033.39
2017-10-01T03:05:56.503Z,1033.36
2017-10-01T03:06:56.498Z,1033.39
2017-10-01T03:07:56.490Z,1033.4
2017-10-01T03:08:56.482Z,1033.42
2017-10-01T03:09:56.473Z,1033.44
2017-10-01T03:10:56.467Z,1033.38
2017-10-01T03:11:56.460Z,1033.4
2017-10-01T03:12:56.451Z,1033.42
2017-10-01T03:13:56.444Z,1033.41
2017-10-01T03:14:56.434Z,1033.37
2017-10-01T03:15:56.426Z,1033.42
2017-10-01T03:16:56.419Z,1033.42
2017-10-01T03:17:56.413Z,1033.46
2017-10-01T03:18:56.405Z,1033.43
2017-10-01T03:19:56.397Z,1033.48
2017-10-01T03:20:56.389Z,1033.5
2017-10-01T03:21:56.381Z,1033.47
2017-10-01T03:22:56.373Z,1033.47
2017-10-01T03:23:56.365Z,1033.49
2017-10-01T03:24:56.357Z,1033.48
2017-10-01T03:25:56.351Z,1033.51
2017-10-01T03:26:56.342Z,1033.48
2017-10-01T03:27:56.335Z,1033.5
2017-10-01T03:28:56.328Z,1033.49
2017-10-01T03:29:56.321Z,1033.5
2017-10-01T03:30:56.311Z,1033.5
2017-10-01T03:31:56.303Z,1033.5
2017-10-01T03:32:56.297Z,1033.53
2017-10-01T03:33:56.289Z,1033.56
2017-10-01T03:34:56.280Z,1033.54
2017-10-01T03:35:56.273Z,1033.57
2017-10-01T03:36:56.270Z,1033.54
2017-10-01T03:37:56.261Z,1033.58
2017-10-01T03:38:56.251Z,1033.58
2017-10-01T03:39:56.244Z,1033.58
2017-10-01T03:40:56.236Z,1033.58
2017-10-01T03:41:56.227Z,1033.59
2017-10-01T03:42:56.219Z,1033.58
2017-10-01T03:43:56.211Z,1033.59
2017-10-01T03:44:56.203Z,1033.59
2017-10-01T03:45:56.197Z,1033.62
2017-10-01T03:46:56.191Z,1033.62
2017-10-01T03:47:56.183Z,1033.64
2017-10-01T03:48:56.174Z,1033.63
2017-10-01T03:49:56.167Z,1033.64
2017-10-01T03:50:56.160Z,1033.65
2017-10-01T03:51:56.151Z,1033.66
2017-10-01T03:52:56.142Z,1033.61
2017-10-01T03:53:56.135Z,1033.66
2017-10-01T03:54:56.130Z,1033.62
2017-10-01T03:55:56.126Z,1033.62
2017-10-01T03:56:56.113Z,1033.64
2017-10-01T03:57:56.105Z,1033.62
2017-10-01T03:58:56.097Z,1033.63
2017-10-01T03:59:56.090Z,1033.62
2017-10-01T04:00:56.083Z,1033.64
2017-10-01T04:01:56.076Z,1033.67
2017-10-01T04:02:56.066Z,1033.65
2017-10-01T04:03:56.058Z,1033.65
2017-10-01T04:04:56.051Z,1033.65
2017-10-01T04:05:56.043Z,1033.66
2017-10-01T04:06:56.037Z,1033.63
2017-10-01T04:07:56.029Z,1033.61
2017-10-01T04:08:56.022Z,1033.58
2017-10-01T04:09:56.014Z,1033.58
2017-10-01T04:10:56.004Z,1033.6
2017-10-01T04:11:55.998Z,1033.63
2017-10-01T04:12:55.989Z,1033.62
2017-10-01T04:13:55.982Z,1033.61
2017-10-01T04:14:55.974Z,1033.61
2017-10-01T04:15:55.969Z,1033.63
2017-10-01T04:16:55.961Z,1033.61
2017-10-01T04:17:55.952Z,1033.66
2017-10-01T04:18:55.943Z,1033.64
2017-10-01T04:19:55.936Z,1033.61
2017-10-01T04:20:55.929Z,1033.66
2017-10-01T04:21:55.920Z,1033.69
2017-10-01T04:22:55.913Z,1033.73
2017-10-01T04:23:55.908Z,1033.75
2017-10-01T04:24:55.899Z,1033.73
2017-10-01T04:25:55.889Z,1033.72
2017-10-01T04:26:55.882Z,1033.73
2017-10-01T04:27:55.876Z,1033.74
2017-10-01T04:28:55.867Z,1033.77
2017-10-01T04:29:55.859Z,1033.76
2017-10-01T04:30:55.851Z,1033.75
2017-10-01T04:31:55.844Z,1033.74
2017-10-01T04:32:55.836Z,1033.75
2017-10-01T04:33:55.829Z,1033.79
2017-10-01T04:34:55.822Z,1033.8
2017-10-01T04:35:55.814Z,1033.82
2017-10-01T04:36:55.806Z,1033.79
2017-10-01T04:37:55.799Z,1033.84
2017-10-01T04:38:55.790Z,1033.84
2017-10-01T04:39:55.782Z,1033.85
2017-10-01T04:40:55.775Z,1033.86
2017-10-01T04:41:55.767Z,1033.86
2017-10-01T04:42:55.761Z,1033.82
2017-10-01T04:43:55.753Z,1033.79
2017-10-01T04:44:55.744Z,1033.77
2017-10-01T04:45:55.738Z,1033.78
2017-10-01T04:46:55.729Z,1033.78
2017-10-01T04:47:55.721Z,1033.77
2017-10-01T04:48:55.713Z,1033.79
2017-10-01T04:49:55.706Z,1033.77
2017-10-01T04:50:55.698Z,1033.77
2017-10-01T04:51:55.690Z,1033.77
2017-10-01T04:52:55.683Z,1033.8
2017-10-01T04:53:55.675Z,1033.81
2017-10-01T04:54:55.671Z,1033.84
2017-10-01T04:55:55.660Z,1033.85
2017-10-01T04:56:55.654Z,1033.81
2017-10-01T04:57:55.646Z,1033.79
2017-10-01T04:58:55.638Z,1033.82
2017-10-01T04:59:55.629Z,1033.76
2017-10-01T05:00:55.622Z,1033.82
2017-10-01T05:01:55.615Z,1033.79
2017-10-01T05:02:55.608Z,1033.76
2017-10-01T05:03:55.601Z,1033.8
2017-10-01T05:04:55.593Z,1033.76
2017-10-01T05:05:55.584Z,1033.77
2017-10-01T05:06:55.577Z,1033.74
2017-10-01T05:07:55.569Z,1033.74
2017-10-01T05:08:55.561Z,1033.73
2017-10-01T05:09:55.553Z,1033.69
2017-10-01T05:10:55.547Z,1033.71
2017-10-01T05:11:55.540Z,1033.67
2017-10-01T05:12:55.531Z,1033.68
2017-10-01T05:13:55.525Z,1033.67
2017-10-01T05:14:55.516Z,1033.64
2017-10-01T05:15:55.509Z,1033.67
2017-10-01T05:16:55.502Z,1033.63
2017-10-01T05:17:55.494Z,1033.55
2017-10-01T05:18:55.487Z,1033.54
2017-10-01T05:19:55.480Z,1033.53
2017-10-01T05:20:55.472Z,1033.49
2017-10-01T05:21:55.469Z,1033.46
2017-10-01T05:22:55.459Z,1033.48
2017-10-01T05:23:55.452Z,1033.45
2017-10-01T05:24:55.444Z,1033.43
2017-10-01T05:25:55.436Z,1033.4
2017-10-01T05:26:55.429Z,1033.39
2017-10-01T05:27:55.421Z,1033.35
2017-10-01T05:28:55.414Z,1033.33
2017-10-01T05:29:55.408Z,1033.32
2017-10-01T05:30:55.701Z,1033.33
2017-10-01T05:31:55.399Z,1033.29
2017-10-01T05:32:55.388Z,1033.23
2017-10-01T05:33:55.381Z,1033.21
2017-10-01T05:34:55.371Z,1033.17
2017-10-01T05:35:55.365Z,1033.12
2017-10-01T05:36:55.358Z,1033.1
2017-10-01T05:37:55.351Z,1033.08
2017-10-01T05:38:55.346Z,1033.06
2017-10-01T05:39:55.339Z,1033.02
2017-10-01T05:40:55.332Z,1033.01
2017-10-01T05:41:55.324Z,1033.01
2017-10-01T05:42:55.317Z,1032.96
2017-10-01T05:43:55.310Z,1032.94
2017-10-01T05:44:55.304Z,1032.88
2017-10-01T05:45:55.297Z,1032.88
2017-10-01T05:46:55.291Z,1032.85
2017-10-01T05:47:55.285Z,1032.88
2017-10-01T05:48:55.279Z,1032.92
2017-10-01T05:49:55.272Z,1032.92
2017-10-01T05:50:55.266Z,1032.99
2017-10-01T05:51:55.258Z,1033
2017-10-01T05:52:55.251Z,1033.04
2017-10-01T05:53:55.246Z,1033.07
2017-10-01T05:54:55.241Z,1033.12
2017-10-01T05:55:55.234Z,1033.13
2017-10-01T05:56:55.226Z,1033.17
2017-10-01T05:57:55.221Z,1033.18
2017-10-01T05:58:55.214Z,1033.21
2017-10-01T05:59:55.208Z,1033.21
2017-10-01T06:00:55.200Z,1033.24
2017-10-01T06:01:55.194Z,1033.24
2017-10-01T06:02:55.192Z,1033.22
2017-10-01T06:03:55.183Z,1033.23
2017-10-01T06:04:55.176Z,1033.19
2017-10-01T06:05:55.170Z,1033.21
2017-10-01T06:06:55.163Z,1033.22
2017-10-01T06:07:55.157Z,1033.21
2017-10-01T06:08:55.149Z,1033.18
2017-10-01T06:09:55.143Z,1033.19
2017-10-01T06:10:55.138Z,1033.22
2017-10-01T06:11:55.130Z,1033.23
2017-10-01T06:12:55.123Z,1033.22
2017-10-01T06:13:55.117Z,1033.24
2017-10-01T06:14:55.111Z,1033.27
2017-10-01T06:15:55.105Z,1033.34
2017-10-01T06:16:55.097Z,1033.34
2017-10-01T06:17:55.093Z,1033.37
2017-10-01T06:18:55.084Z,1033.36
2017-10-01T06:19:55.077Z,1033.35
2017-10-01T06:20:55.072Z,1033.35
2017-10-01T06:21:55.065Z,1033.33
2017-10-01T06:22:55.059Z,1033.42
2017-10-01T06:23:55.058Z,1033.4
2017-10-01T06:24:55.047Z,1033.41
2017-10-01T06:25:55.039Z,1033.44
2017-10-01T06:26:55.032Z,1033.47
2017-10-01T06:27:55.026Z,1033.47
2017-10-01T06:28:55.019Z,1033.48
2017-10-01T06:29:55.012Z,1033.5
2017-10-01T06:30:55.007Z,1033.48
2017-10-01T06:31:55.000Z,1033.47
2017-10-01T06:32:54.993Z,1033.45
2017-10-01T06:33:54.985Z,1033.5
2017-10-01T06:34:54.985Z,1033.47
2017-10-01T06:35:54.973Z,1033.46
2017-10-01T06:36:54.966Z,1033.5
2017-10-01T06:37:54.960Z,1033.49
2017-10-01T06:38:54.953Z,1033.5
2017-10-01T06:39:54.947Z,1033.48
2017-10-01T06:40:54.944Z,1033.51
2017-10-01T06:41:54.933Z,1033.52
2017-10-01T06:42:54.928Z,1033.52
2017-10-01T06:43:54.921Z,1033.54
2017-10-01T06:44:54.915Z,1033.5
2017-10-01T06:45:54.908Z,1033.52
2017-10-01T06:46:54.901Z,1033.49
2017-10-01T06:47:54.894Z,1033.5
2017-10-01T06:48:54.891Z,1033.5
2017-10-01T06:49:54.881Z,1033.5
2017-10-01T06:50:54.877Z,1033.51
2017-10-01T06:51:54.869Z,1033.52
2017-10-01T06:52:54.863Z,1033.52
2017-10-01T06:53:54.856Z,1033.54
2017-10-01T06:54:54.849Z,1033.54
2017-10-01T06:55:54.844Z,1033.58
2017-10-01T06:56:54.837Z,1033.56
2017-10-01T06:57:54.830Z,1033.55
2017-10-01T06:58:54.824Z,1033.56
2017-10-01T06:59:54.818Z,1033.57
2017-10-01T07:00:54.811Z,1033.56
2017-10-01T07:01:54.806Z,1033.53
2017-10-01T07:02:54.799Z,1033.58
2017-10-01T07:03:54.793Z,1033.58
2017-10-01T07:04:54.786Z,1033.54
2017-10-01T07:05:54.780Z,1033.54
2017-10-01T07:06:54.772Z,1033.53
2017-10-01T07:07:54.766Z,1033.52
2017-10-01T07:08:54.760Z,1033.51
2017-10-01T07:09:54.753Z,1033.5
2017-10-01T07:10:54.750Z,1033.51
2017-10-01T07:11:54.741Z,1033.48
2017-10-01T07:12:54.736Z,1033.47
2017-10-01T07:13:54.729Z,1033.48
2017-10-01T07:14:54.721Z,1033.47
2017-10-01T07:15:54.715Z,1033.44
2017-10-01T07:16:54.709Z,1033.42
2017-10-01T07:17:54.703Z,1033.45
2017-10-01T07:18:54.698Z,1033.46
2017-10-01T07:19:54.693Z,1033.47
2017-10-01T07:20:54.685Z,1033.5
2017-10-01T07:21:54.679Z,1033.51
2017-10-01T07:22:54.672Z,1033.52
2017-10-01T07:23:54.665Z,1033.49
2017-10-01T07:24:54.660Z,1033.52
2017-10-01T07:25:54.654Z,1033.52
2017-10-01T07:26:54.647Z,1033.53
2017-10-01T07:27:54.641Z,1033.5
2017-10-01T07:28:54.634Z,1033.53
2017-10-01T07:29:54.628Z,1033.55
2017-10-01T07:30:54.623Z,1033.6
2017-10-01T07:31:54.617Z,1033.57
2017-10-01T07:32:54.611Z,1033.55
2017-10-01T07:33:54.605Z,1033.56
2017-10-01T07:34:54.598Z,1033.58
2017-10-01T07:35:54.591Z,1033.56
2017-10-01T07:36:54.585Z,1033.61
2017-10-01T07:37:54.580Z,1033.64
2017-10-01T07:38:54.574Z,1033.64
2017-10-01T07:39:54.568Z,1033.63
2017-10-01T07:40:54.562Z,1033.65
2017-10-01T07:41:54.556Z,1033.66
2017-10-01T07:42:54.547Z,1033.59
2017-10-01T07:43:54.542Z,1033.58
2017-10-01T07:44:54.536Z,1033.48
2017-10-01T07:45:54.530Z,1033.45
2017-10-01T07:46:54.525Z,1033.36
2017-10-01T07:47:54.520Z,1033.34
2017-10-01T07:48:54.514Z,1033.3
2017-10-01T07:49:54.505Z,1033.23
2017-10-01T07:50:54.501Z,1033.17
2017-10-01T07:51:54.496Z,1033.14
2017-10-01T07:52:54.490Z,1033.1
2017-10-01T07:53:54.483Z,1033.11
2017-10-01T07:54:54.476Z,1033.09
2017-10-01T07:55:54.471Z,1033.05
2017-10-01T07:56:54.465Z,1033.03
2017-10-01T07:57:54.459Z,1033
2017-10-01T07:58:54.454Z,1032.99
2017-10-01T07:59:54.450Z,1033
2017-10-01T08:00:54.443Z,1033
2017-10-01T08:01:54.437Z,1032.96
2017-10-01T08:02:54.432Z,1032.93
2017-10-01T08:03:54.426Z,1032.93
2017-10-01T08:04:54.421Z,1032.87
2017-10-01T08:05:54.415Z,1032.93
2017-10-01T08:06:54.411Z,1032.93
2017-10-01T08:07:54.406Z,1032.95
2017-10-01T08:08:54.402Z,1032.96
2017-10-01T08:09:54.395Z,1032.97
2017-10-01T08:10:54.389Z,1033.02
2017-10-01T08:11:54.383Z,1032.97
2017-10-01T08:12:54.379Z,1032.99
2017-10-01T08:13:54.374Z,1033
2017-10-01T08:14:54.370Z,1032.98
2017-10-01T08:15:54.363Z,1032.96
2017-10-01T08:16:54.357Z,1032.94
2017-10-01T08:17:54.351Z,1032.93
2017-10-01T08:18:54.352Z,1032.93
2017-10-01T08:19:54.343Z,1032.92
2017-10-01T08:20:54.337Z,1032.92
2017-10-01T08:21:54.332Z,1032.92
2017-10-01T08:22:54.327Z,1032.93
2017-10-01T08:23:54.321Z,1032.97
2017-10-01T08:24:54.317Z,1032.99
2017-10-01T08:25:54.312Z,1033
2017-10-01T08:26:54.307Z,1033.03
2017-10-01T08:27:54.302Z,1033.01
2017-10-01T08:28:54.299Z,1033.02
2017-10-01T08:29:54.294Z,1033
2017-10-01T08:30:54.287Z,1033
2017-10-01T08:31:54.283Z,1032.99
2017-10-01T08:32:54.278Z,1032.97
2017-10-01T08:33:54.272Z,1032.95
2017-10-01T08:34:54.269Z,1032.87
2017-10-01T08:35:54.265Z,1032.78
2017-10-01T08:36:54.259Z,1032.78
2017-10-01T08:37:54.555Z,1032.76
2017-10-01T08:38:54.253Z,1032.76
2017-10-01T08:39:54.244Z,1032.73
2017-10-01T08:40:54.240Z,1032.7
2017-10-01T08:41:54.236Z,1032.69
2017-10-01T08:42:54.230Z,1032.7
2017-10-01T08:43:54.244Z,1032.7
2017-10-01T08:44:54.221Z,1032.75
2017-10-01T08:45:54.216Z,1032.74
2017-10-01T08:46:54.213Z,1032.75
2017-10-01T08:47:54.210Z,1032.75
2017-10-01T08:48:54.203Z,1032.75
2017-10-01T08:49:54.198Z,1032.78
2017-10-01T08:50:54.194Z,1032.78
2017-10-01T08:51:54.188Z,1032.79
2017-10-01T08:52:54.183Z,1032.83
2017-10-01T08:53:54.179Z,1032.88
2017-10-01T08:54:54.176Z,1032.92
2017-10-01T08:55:54.170Z,1032.93
2017-10-01T08:56:54.167Z,1033.02
2017-10-01T08:57:54.162Z,1033.01
2017-10-01T08:58:54.157Z,1033.09
2017-10-01T08:59:54.152Z,1033.14
2017-10-01T09:00:54.148Z,1033.14
2017-10-01T09:01:54.143Z,1033.19
2017-10-01T09:02:54.140Z,1033.23
2017-10-01T09:03:54.134Z,1033.28
2017-10-01T09:04:54.131Z,1033.39
2017-10-01T09:05:54.127Z,1033.46
2017-10-01T09:06:54.121Z,1033.48
2017-10-01T09:07:54.117Z,1033.51
2017-10-01T09:08:54.113Z,1033.53
2017-10-01T09:09:54.108Z,1033.57
2017-10-01T09:10:54.102Z,1033.52
2017-10-01T09:11:54.097Z,1033.54
2017-10-01T09:12:54.092Z,1033.55
2017-10-01T09:13:54.087Z,1033.54
2017-10-01T09:14:54.084Z,1033.51
2017-10-01T09:15:54.078Z,1033.56
2017-10-01T09:16:54.074Z,1033.55
2017-10-01T09:17:54.070Z,1033.52
2017-10-01T09:18:54.063Z,1033.56
2017-10-01T09:19:54.059Z,1033.62
2017-10-01T09:20:54.055Z,1033.69
2017-10-01T09:21:54.050Z,1033.7
2017-10-01T09:22:54.045Z,1033.8
2017-10-01T09:23:54.041Z,1033.78
2017-10-01T09:24:54.035Z,1033.81
2017-10-01T09:25:54.031Z,1033.85
2017-10-01T09:26:54.025Z,1033.89
2017-10-01T09:27:54.020Z,1033.89
2017-10-01T09:28:54.014Z,1033.95
2017-10-01T09:29:54.009Z,1033.96
2017-10-01T09:30:54.006Z,1034.01
2017-10-01T09:31:54.001Z,1034.11
2017-10-01T09:32:53.995Z,1034.1
2017-10-01T09:33:53.989Z,1034.12
2017-10-01T09:34:53.986Z,1034.12
2017-10-01T09:35:53.981Z,1034.11
2017-10-01T09:36:53.975Z,1034.11
2017-10-01T09:37:53.970Z,1034.15
2017-10-01T09:38:53.965Z,1034.18
2017-10-01T09:39:53.960Z,1034.2
2017-10-01T09:40:53.953Z,1034.23
2017-10-01T09:41:53.949Z,1034.22
2017-10-01T09:42:53.944Z,1034.19
2017-10-01T09:43:53.939Z,1034.18
2017-10-01T09:44:53.933Z,1034.17
2017-10-01T09:45:53.928Z,1034.13
2017-10-01T09:46:53.921Z,1034.2
2017-10-01T09:47:53.916Z,1034.16
2017-10-01T09:48:53.914Z,1034.22
2017-10-01T09:49:53.906Z,1034.24
2017-10-01T09:50:53.902Z,1034.22
2017-10-01T09:51:53.896Z,1034.21
2017-10-01T09:52:53.893Z,1034.15
2017-10-01T09:53:53.887Z,1034.14
2017-10-01T09:54:53.879Z,1034.1
2017-10-01T09:55:53.874Z,1034.08
2017-10-01T09:56:53.870Z,1034.05
2017-10-01T09:57:53.865Z,1034.02
2017-10-01T09:58:53.860Z,1033.97
2017-10-01T09:59:53.854Z,1033.89
2017-10-01T10:00:53.849Z,1033.8
2017-10-01T10:01:53.843Z,1033.77
2017-10-01T10:02:53.839Z,1033.76
2017-10-01T10:03:53.835Z,1033.72
2017-10-01T10:04:53.829Z,1033.68
2017-10-01T10:05:53.825Z,1033.66
2017-10-01T10:06:53.818Z,1033.56
2017-10-01T10:07:53.813Z,1033.63
2017-10-01T10:08:53.808Z,1033.61
2017-10-01T10:09:53.803Z,1033.59
2017-10-01T10:10:53.800Z,1033.6
2017-10-01T10:11:53.795Z,1033.55
2017-10-01T10:12:53.789Z,1033.57
2017-10-01T10:13:53.784Z,1033.55
2017-10-01T10:14:53.778Z,1033.53
2017-10-01T10:15:53.772Z,1033.4
2017-10-01T10:16:53.796Z,1033.37
2017-10-01T10:17:53.764Z,1033.35
2017-10-01T10:18:53.760Z,1033.33
2017-10-01T10:19:53.754Z,1033.3
2017-10-01T10:20:53.749Z,1033.26
2017-10-01T10:21:53.745Z,1033.24
2017-10-01T10:22:53.739Z,1033.27
2017-10-01T10:23:53.734Z,1033.26
2017-10-01T10:24:53.732Z,1033.33
2017-10-01T10:25:53.726Z,1033.34
2017-10-01T10:26:53.719Z,1033.35
2017-10-01T10:27:53.717Z,1033.35
2017-10-01T10:28:53.711Z,1033.38
2017-10-01T10:29:53.705Z,1033.38
2017-10-01T10:30:53.702Z,1033.4
2017-10-01T10:31:53.698Z,1033.41
2017-10-01T10:32:53.694Z,1033.41
2017-10-01T10:33:53.688Z,1033.4
2017-10-01T10:34:53.682Z,1033.42
2017-10-01T10:35:53.678Z,1033.44
2017-10-01T10:36:53.672Z,1033.44
2017-10-01T10:37:53.667Z,1033.43
2017-10-01T10:38:53.665Z,1033.42
2017-10-01T10:39:53.660Z,1033.41
2017-10-01T10:40:53.655Z,1033.39
2017-10-01T10:41:53.649Z,1033.37
2017-10-01T10:42:53.644Z,1033.33
2017-10-01T10:43:53.640Z,1033.37
2017-10-01T10:44:53.637Z,1033.38
2017-10-01T10:45:53.632Z,1033.35
2017-10-01T10:46:53.627Z,1033.29
2017-10-01T10:47:53.623Z,1033.28
2017-10-01T10:48:53.618Z,1033.24
2017-10-01T10:49:53.613Z,1033.22
2017-10-01T10:50:53.611Z,1033.16
2017-10-01T10:51:53.607Z,1033.12
2017-10-01T10:52:53.602Z,1033.03
2017-10-01T10:53:53.596Z,1033.05
2017-10-01T10:54:53.591Z,1033.03
2017-10-01T10:55:53.588Z,1033.04
2017-10-01T10:56:53.582Z,1033.03
2017-10-01T10:57:53.578Z,1032.99
2017-10-01T10:58:53.576Z,1032.95
2017-10-01T10:59:53.571Z,1032.91
2017-10-01T11:00:53.567Z,1032.84
2017-10-01T11:01:53.563Z,1032.79
2017-10-01T11:02:53.558Z,1032.74
2017-10-01T11:03:53.554Z,1032.72
2017-10-01T11:04:53.550Z,1032.73
2017-10-01T11:05:53.546Z,1032.76
2017-10-01T11:06:53.543Z,1032.74
2017-10-01T11:07:53.538Z,1032.74
2017-10-01T11:08:53.537Z,1032.67
2017-10-01T11:09:53.532Z,1032.64
2017-10-01T11:10:53.526Z,1032.65
2017-10-01T11:11:53.522Z,1032.65
2017-10-01T11:12:53.520Z,1032.66
2017-10-01T11:13:53.517Z,1032.69
2017-10-01T11:14:53.513Z,1032.67
2017-10-01T11:15:53.508Z,1032.65
2017-10-01T11:16:53.505Z,1032.69
2017-10-01T11:17:53.501Z,1032.75
2017-10-01T11:18:53.498Z,1032.83
2017-10-01T11:19:53.494Z,1032.9
2017-10-01T11:20:53.492Z,1033
2017-10-01T11:21:53.488Z,1032.99
2017-10-01T11:22:53.483Z,1032.99
2017-10-01T11:23:53.480Z,1033
2017-10-01T11:24:53.477Z,1032.92
2017-10-01T11:25:53.472Z,1032.86
2017-10-01T11:26:53.470Z,1032.8
2017-10-01T11:27:53.474Z,1032.72
2017-10-01T11:28:53.462Z,1032.63
2017-10-01T11:29:53.459Z,1032.54
2017-10-01T11:30:53.455Z,1032.48
2017-10-01T11:31:53.451Z,1032.4
2017-10-01T11:32:53.447Z,1032.3
2017-10-01T11:33:53.444Z,1032.26
2017-10-01T11:34:53.443Z,1032.2
2017-10-01T11:35:53.439Z,1032.18
2017-10-01T11:36:53.435Z,1032.25
2017-10-01T11:37:53.432Z,1032.27
2017-10-01T11:38:53.428Z,1032.27
2017-10-01T11:39:53.425Z,1032.25
2017-10-01T11:40:53.423Z,1032.18
2017-10-01T11:41:53.421Z,1032.14
2017-10-01T11:42:53.417Z,1032.08
2017-10-01T11:43:53.413Z,1031.89
2017-10-01T11:44:53.410Z,1031.87
2017-10-01T11:45:53.407Z,1031.82
2017-10-01T11:46:53.406Z,1031.76
2017-10-01T11:47:53.403Z,1031.75
2017-10-01T11:48:53.399Z,1031.72
2017-10-01T11:49:53.397Z,1031.75
2017-10-01T11:50:53.392Z,1031.77
2017-10-01T11:51:53.391Z,1031.82
2017-10-01T11:52:53.388Z,1031.83
2017-10-01T11:53:53.385Z,1031.85
2017-10-01T11:54:53.383Z,1031.95
2017-10-01T11:55:53.381Z,1031.99
2017-10-01T11:56:53.378Z,1032.06
2017-10-01T11:57:53.376Z,1032.08
2017-10-01T11:58:53.371Z,1032.13
2017-10-01T11:59:53.369Z,1032.13
2017-10-01T12:00:53.368Z,1032.11
2017-10-01T12:01:53.364Z,1032.02
2017-10-01T12:02:53.362Z,1032.01
2017-10-01T12:03:53.361Z,1031.97
2017-10-01T12:04:53.358Z,1031.95
2017-10-01T12:05:53.353Z,1031.97
2017-10-01T12:06:53.352Z,1032.01
2017-10-01T12:07:53.351Z,1032.08
2017-10-01T12:08:53.349Z,1032.14